Time;durP1;ratioP1;P1;durP2;ratioP2;P2;SDS_P1;SDS_P2;PMS_P1;PMS_P2;Temp;Humidity;BMP_temperature;BMP_pressure;BME280_temperature;BME280_humidity;BME280_pressure;Samples;Min_cycle;Max_cycle;Signal;HPM_P1;HPM_P2
2022/09/06 00:00:12;;;;;;;11.32;6.13;;;25.80;77.90;;;;;;5033826;28;20487;-70
2022/09/06 00:02:39;;;;;;;11.32;6.50;;;25.80;77.90;;;;;;5034261;28;20029;-67
2022/09/06 00:05:06;;;;;;;13.70;6.38;;;25.80;77.80;;;;;;5033716;28;20017;-69
2022/09/06 00:07:32;;;;;;;12.18;6.22;;;25.80;78.00;;;;;;5033925;28;20054;-72
2022/09/06 00:10:00;;;;;;;7.15;5.10;;;25.80;78.10;;;;;;5033746;28;20028;-67
2022/09/06 00:12:26;;;;;;;15.30;6.45;;;25.70;78.20;;;;;;5033911;28;20026;-66
2022/09/06 00:14:51;;;;;;;11.52;5.95;;;25.70;78.10;;;;;;5034447;28;20037;-73
2022/09/06 00:17:17;;;;;;;14.45;5.35;;;25.70;77.90;;;;;;5033895;28;20501;-70
2022/09/06 00:19:43;;;;;;;12.45;5.93;;;25.70;77.90;;;;;;5044201;28;20048;-67
2022/09/06 00:22:09;;;;;;;9.05;5.10;;;25.70;77.60;;;;;;5043500;28;20037;-67
2022/09/06 00:24:36;;;;;;;12.95;5.18;;;25.70;77.10;;;;;;5035548;28;20037;-72
2022/09/06 00:27:07;;;;;;;13.05;5.75;;;25.60;77.00;;;;;;5033884;28;20025;-73
2022/09/06 00:29:33;;;;;;;12.05;5.13;;;25.60;76.90;;;;;;5033888;28;20034;-75
2022/09/06 00:31:59;;;;;;;10.60;5.07;;;25.60;76.50;;;;;;5033831;28;20029;-78
2022/09/06 00:34:26;;;;;;;10.70;5.25;;;25.60;76.60;;;;;;5033970;28;20017;-76
2022/09/06 00:36:53;;;;;;;10.65;5.40;;;25.50;76.30;;;;;;5034196;28;20045;-76
2022/09/06 00:39:18;;;;;;;8.32;4.80;;;25.50;76.40;;;;;;5033656;28;20021;-72
2022/09/06 00:41:44;;;;;;;10.80;4.95;;;25.50;76.30;;;;;;5033098;28;20137;-71
2022/09/06 00:44:10;;;;;;;13.60;5.40;;;25.50;76.20;;;;;;5033675;28;20025;-69
2022/09/06 00:46:38;;;;;;;9.73;4.50;;;25.40;76.30;;;;;;5033683;28;20021;-71
2022/09/06 00:49:23;;;;;;;10.95;4.85;;;25.30;76.40;;;;;;5033165;28;20166;-66
2022/09/06 00:51:54;;;;;;;8.27;4.90;;;25.30;76.40;;;;;;5015205;28;20025;-71
2022/09/06 00:54:20;;;;;;;12.82;5.35;;;25.20;76.60;;;;;;5032828;28;20028;-71
2022/09/06 00:56:47;;;;;;;8.68;4.38;;;25.20;76.70;;;;;;5032792;28;20471;-71
2022/09/06 00:59:14;;;;;;;8.38;4.28;;;25.10;76.60;;;;;;5015082;28;20029;-71
2022/09/06 01:01:40;;;;;;;9.57;5.22;;;25.10;76.60;;;;;;5032793;28;20037;-72
2022/09/06 01:04:06;;;;;;;10.02;4.32;;;25.10;76.80;;;;;;5032985;28;20366;-73
2022/09/06 01:06:55;;;;;;;7.95;4.20;;;25.10;76.90;;;;;;5032512;28;20095;-71
2022/09/06 01:09:39;;;;;;;10.13;4.13;;;25.10;76.90;;;;;;5033129;28;20487;-71
2022/09/06 01:12:40;;;;;;;8.05;4.20;;;25.00;76.50;;;;;;5033082;28;20021;-74
2022/09/06 01:15:12;;;;;;;8.65;4.28;;;25.00;77.10;;;;;;5032535;28;20025;-71
2022/09/06 01:17:40;;;;;;;13.73;4.35;;;25.00;77.00;;;;;;5032595;28;20033;-71
2022/09/06 01:20:14;;;;;;;11.40;4.95;;;25.00;77.10;;;;;;5032648;28;20044;-70
2022/09/06 01:22:52;;;;;;;11.25;5.43;;;25.00;77.00;;;;;;5032395;28;20048;-70
2022/09/06 01:25:44;;;;;;;9.88;4.35;;;24.90;77.20;;;;;;5032302;28;20083;-70
2022/09/06 01:28:18;;;;;;;8.20;4.80;;;24.90;77.00;;;;;;5001860;28;20041;-69
2022/09/06 01:30:59;;;;;;;8.40;4.55;;;25.00;77.70;;;;;;5035935;28;20025;-67
2022/09/06 01:33:50;;;;;;;10.35;4.50;;;24.90;77.00;;;;;;5036845;28;20029;-66
2022/09/06 01:36:25;;;;;;;9.52;4.70;;;24.90;77.50;;;;;;5008399;28;20476;-73
2022/09/06 01:38:51;;;;;;;8.85;3.75;;;24.90;77.00;;;;;;5036670;28;20420;-69
2022/09/06 01:41:17;;;;;;;7.78;3.95;;;24.90;76.90;;;;;;5036385;28;20036;-71
2022/09/06 01:43:46;;;;;;;10.60;4.55;;;25.00;76.90;;;;;;5036491;28;20029;-75
2022/09/06 01:46:22;;;;;;;7.47;3.90;;;25.00;76.90;;;;;;5036400;28;20028;-72
2022/09/06 01:48:51;;;;;;;12.38;4.13;;;24.90;77.10;;;;;;5036662;28;20490;-76
2022/09/06 01:51:38;;;;;;;11.63;4.40;;;24.90;77.10;;;;;;5036577;28;20071;-72
2022/09/06 01:54:37;;;;;;;9.27;4.70;;;24.90;77.70;;;;;;5037418;28;20036;-74
2022/09/06 01:57:15;;;;;;;9.02;4.47;;;24.90;77.80;;;;;;5039789;28;20030;-70
2022/09/06 02:00:12;;;;;;;11.32;4.22;;;24.90;78.00;;;;;;5036220;28;20076;-67
2022/09/06 02:02:53;;;;;;;10.32;5.32;;;24.90;77.90;;;;;;5035809;28;20117;-72
2022/09/06 02:05:33;;;;;;;9.10;4.15;;;24.90;78.60;;;;;;5035853;28;20052;-69
2022/09/06 02:08:07;;;;;;;10.05;4.63;;;24.80;78.10;;;;;;5035695;28;20081;-69
2022/09/06 02:10:43;;;;;;;11.82;4.57;;;24.80;79.20;;;;;;5035906;28;20024;-74
2022/09/06 02:13:13;;;;;;;14.05;5.22;;;24.80;79.60;;;;;;5035660;28;20018;-71
2022/09/06 02:15:45;;;;;;;11.10;4.50;;;24.80;79.00;;;;;;5035602;28;20040;-71
2022/09/06 02:18:23;;;;;;;16.77;4.88;;;24.80;79.20;;;;;;5035706;28;20025;-72
2022/09/06 02:20:53;;;;;;;8.98;4.97;;;24.80;79.30;;;;;;5035536;28;20021;-71
2022/09/06 02:23:24;;;;;;;8.73;4.88;;;24.80;79.40;;;;;;5035748;28;20053;-72
2022/09/06 02:25:54;;;;;;;11.18;5.32;;;24.80;79.70;;;;;;5035502;28;20032;-69
2022/09/06 02:28:21;;;;;;;11.43;4.95;;;24.80;79.90;;;;;;5036314;28;20049;-70
2022/09/06 02:30:56;;;;;;;8.57;4.75;;;24.80;80.20;;;;;;5034421;28;20088;-68
2022/09/06 02:33:27;;;;;;;10.23;4.75;;;24.80;80.30;;;;;;5035614;28;20380;-68
2022/09/06 02:35:54;;;;;;;11.13;5.38;;;24.70;80.50;;;;;;5035856;28;20370;-67
2022/09/06 02:38:23;;;;;;;9.52;4.75;;;24.70;80.60;;;;;;5035389;28;20026;-67
2022/09/06 02:40:52;;;;;;;10.90;4.78;;;24.70;80.80;;;;;;5034935;28;20104;-70
2022/09/06 02:43:18;;;;;;;7.75;4.28;;;24.70;80.40;;;;;;5035232;28;20035;-69
2022/09/06 02:45:44;;;;;;;9.32;5.00;;;24.70;80.90;;;;;;5035350;28;20096;-73
2022/09/06 02:48:10;;;;;;;7.97;4.40;;;24.70;80.90;;;;;;5035590;28;20064;-74
2022/09/06 02:50:35;;;;;;;9.98;4.78;;;24.70;80.90;;;;;;5017375;28;20032;-77
2022/09/06 02:53:09;;;;;;;11.27;4.65;;;24.70;80.90;;;;;;5035156;28;20033;-77
2022/09/06 02:55:36;;;;;;;10.40;4.90;;;24.70;81.70;;;;;;5035373;28;20018;-73
2022/09/06 02:58:02;;;;;;;9.68;4.68;;;24.70;80.80;;;;;;5035439;28;20103;-73
2022/09/06 03:00:28;;;;;;;11.02;5.18;;;24.70;80.90;;;;;;5036921;28;20331;-70
2022/09/06 03:02:55;;;;;;;9.98;4.65;;;24.70;81.20;;;;;;5036965;28;20449;-69
2022/09/06 03:05:22;;;;;;;10.52;4.63;;;24.70;81.20;;;;;;5036471;28;20109;-74
2022/09/06 03:07:48;;;;;;;10.07;4.95;;;24.70;81.40;;;;;;5036405;28;20045;-77
2022/09/06 03:10:16;;;;;;;8.95;4.95;;;24.60;81.50;;;;;;5035243;28;20347;-71
2022/09/06 03:12:46;;;;;;;9.50;4.90;;;24.60;81.80;;;;;;5034879;28;20017;-78
2022/09/06 03:15:14;;;;;;;11.07;4.95;;;24.60;82.20;;;;;;5034908;28;20118;-74
2022/09/06 03:17:41;;;;;;;12.55;5.18;;;24.50;82.20;;;;;;5016732;28;20036;-76
2022/09/06 03:20:10;;;;;;;9.23;4.80;;;24.50;82.40;;;;;;5016666;28;20168;-76
2022/09/06 03:22:36;;;;;;;11.13;4.95;;;24.50;82.80;;;;;;5034812;28;20030;-72
2022/09/06 03:25:02;;;;;;;9.52;4.90;;;24.50;82.70;;;;;;5034368;28;20123;-66
2022/09/06 03:27:28;;;;;;;11.88;5.15;;;24.50;83.10;;;;;;5034643;28;20128;-76
2022/09/06 03:29:54;;;;;;;12.13;5.15;;;24.50;83.20;;;;;;5034726;28;20030;-75
2022/09/06 03:32:21;;;;;;;9.70;4.78;;;24.50;83.10;;;;;;5034278;28;20022;-74
2022/09/06 03:34:46;;;;;;;13.65;6.30;;;24.40;83.30;;;;;;5034398;28;20034;-69
2022/09/06 03:37:12;;;;;;;9.27;5.40;;;24.40;83.40;;;;;;5034475;28;20022;-71
2022/09/06 03:39:38;;;;;;;8.77;4.68;;;24.40;83.40;;;;;;5034284;28;20080;-67
2022/09/06 03:42:03;;;;;;;12.20;5.13;;;24.40;83.50;;;;;;5034228;28;20037;-69
2022/09/06 03:44:29;;;;;;;10.75;4.97;;;24.40;83.60;;;;;;5033906;28;20029;-70
2022/09/06 03:46:55;;;;;;;9.68;5.38;;;24.50;83.60;;;;;;5034055;28;20026;-68
2022/09/06 03:49:22;;;;;;;12.05;5.20;;;24.50;83.20;;;;;;5034171;28;20021;-67
2022/09/06 03:51:49;;;;;;;9.80;4.97;;;24.40;83.90;;;;;;5033716;28;20113;-68
2022/09/06 03:54:16;;;;;;;11.18;5.22;;;24.40;84.10;;;;;;5033945;28;20084;-68
2022/09/06 03:56:41;;;;;;;13.18;5.15;;;24.40;84.40;;;;;;5034535;28;20096;-70
2022/09/06 03:59:09;;;;;;;12.68;4.95;;;24.30;83.60;;;;;;5034739;28;20459;-67
2022/09/06 04:01:36;;;;;;;10.73;4.53;;;24.30;84.30;;;;;;5032370;28;20517;-67
2022/09/06 04:04:02;;;;;;;9.82;4.13;;;24.20;83.60;;;;;;5033545;28;20029;-67
2022/09/06 04:06:32;;;;;;;8.05;4.93;;;24.20;83.40;;;;;;5033982;28;20084;-69
2022/09/06 04:08:58;;;;;;;12.35;4.80;;;24.30;84.20;;;;;;5033942;28;20113;-70
2022/09/06 04:11:23;;;;;;;10.70;4.95;;;24.20;83.30;;;;;;5032436;28;20037;-67
2022/09/06 04:13:50;;;;;;;10.88;4.80;;;24.30;83.20;;;;;;5033559;28;20030;-68
2022/09/06 04:16:17;;;;;;;10.48;4.90;;;24.30;83.80;;;;;;5033741;28;20374;-73
2022/09/06 04:18:43;;;;;;;9.65;5.40;;;24.30;83.00;;;;;;5015513;28;20034;-72
2022/09/06 04:21:08;;;;;;;10.73;5.00;;;24.30;82.90;;;;;;5033301;28;20037;-71
2022/09/06 04:23:34;;;;;;;11.85;5.40;;;24.30;82.80;;;;;;5033342;28;20533;-69
2022/09/06 04:26:00;;;;;;;10.68;5.20;;;24.20;82.90;;;;;;5032524;28;20140;-69
2022/09/06 04:28:27;;;;;;;10.95;4.63;;;24.10;83.10;;;;;;5032848;28;20045;-74
2022/09/06 04:30:57;;;;;;;9.13;4.45;;;24.10;83.10;;;;;;5032430;28;20029;-69
2022/09/06 04:33:24;;;;;;;9.27;4.90;;;24.10;84.00;;;;;;5033306;28;20029;-67
2022/09/06 04:35:55;;;;;;;11.25;4.90;;;24.20;82.80;;;;;;5032647;28;20516;-72
2022/09/06 04:38:21;;;;;;;8.52;4.82;;;24.20;82.90;;;;;;5033411;28;20026;-69
2022/09/06 04:40:47;;;;;;;9.98;5.05;;;24.20;82.70;;;;;;5033160;28;20493;-67
2022/09/06 04:43:12;;;;;;;8.13;5.05;;;24.20;82.70;;;;;;5033179;28;20025;-67
2022/09/06 04:45:38;;;;;;;12.18;6.18;;;24.10;82.30;;;;;;5033023;28;20029;-71
2022/09/06 04:48:04;;;;;;;11.65;5.65;;;24.10;82.10;;;;;;5032971;28;20030;-69
2022/09/06 04:50:29;;;;;;;11.38;4.80;;;24.10;82.10;;;;;;5032996;28;20021;-69
2022/09/06 04:52:56;;;;;;;8.77;5.05;;;24.10;81.90;;;;;;5032930;28;20048;-75
2022/09/06 04:55:22;;;;;;;9.68;5.18;;;24.10;81.70;;;;;;5032903;28;20390;-67
2022/09/06 04:57:48;;;;;;;14.23;5.53;;;24.10;81.50;;;;;;5032984;28;20028;-70
2022/09/06 05:00:14;;;;;;;15.20;4.57;;;24.10;81.50;;;;;;5032889;28;20030;-67
2022/09/06 05:02:40;;;;;;;10.77;5.47;;;24.20;81.30;;;;;;5032869;28;20034;-72
2022/09/06 05:05:06;;;;;;;10.52;4.32;;;24.20;81.30;;;;;;5033083;28;20356;-74
2022/09/06 05:07:33;;;;;;;12.80;4.68;;;24.10;81.10;;;;;;5032721;28;20111;-74
2022/09/06 05:09:58;;;;;;;8.57;4.90;;;24.10;81.50;;;;;;5033012;28;20041;-70
2022/09/06 05:12:26;;;;;;;8.63;4.03;;;24.10;80.50;;;;;;5032388;28;20055;-74
2022/09/06 05:14:53;;;;;;;10.65;4.72;;;24.10;81.20;;;;;;5032282;28;20030;-69
2022/09/06 05:17:18;;;;;;;10.57;4.65;;;24.10;81.20;;;;;;5032426;28;20026;-72
2022/09/06 05:19:47;;;;;;;18.13;5.05;;;24.10;80.30;;;;;;5032391;28;20024;-69
2022/09/06 05:22:13;;;;;;;9.57;3.95;;;24.10;80.30;;;;;;5032592;28;20483;-69
2022/09/06 05:24:38;;;;;;;8.50;4.18;;;24.20;80.40;;;;;;5032568;28;20010;-68
2022/09/06 05:27:06;;;;;;;8.50;4.35;;;24.20;80.10;;;;;;5032752;28;20045;-67
2022/09/06 05:29:32;;;;;;;8.13;4.68;;;24.30;79.90;;;;;;5032300;28;20021;-72
2022/09/06 05:31:58;;;;;;;14.00;4.93;;;24.30;79.80;;;;;;5032269;28;20524;-70
2022/09/06 05:34:23;;;;;;;9.93;5.45;;;24.30;79.70;;;;;;5031105;28;20030;-71
2022/09/06 05:36:49;;;;;;;11.95;4.57;;;24.30;79.60;;;;;;5032330;28;20486;-70
2022/09/06 05:39:19;;;;;;;14.15;5.95;;;24.30;80.20;;;;;;5031296;28;20399;-70
2022/09/06 05:41:46;;;;;;;10.02;4.93;;;24.30;80.40;;;;;;5032668;28;20104;-69
2022/09/06 05:44:12;;;;;;;8.18;4.25;;;24.40;79.30;;;;;;5032467;28;20040;-68
2022/09/06 05:46:44;;;;;;;10.35;4.47;;;24.40;79.40;;;;;;5032806;28;20026;-72
2022/09/06 05:49:11;;;;;;;8.70;4.78;;;24.40;80.20;;;;;;5032497;28;20108;-74
2022/09/06 05:51:37;;;;;;;11.23;4.72;;;24.50;79.00;;;;;;5032296;28;20048;-73
2022/09/06 05:54:03;;;;;;;10.77;4.32;;;24.70;78.80;;;;;;5030841;28;20038;-68
2022/09/06 05:56:30;;;;;;;9.02;4.75;;;24.80;78.50;;;;;;5032382;28;20021;-69
2022/09/06 05:58:57;;;;;;;16.08;5.25;;;25.00;77.90;;;;;;5031898;28;20116;-69
2022/09/06 06:01:28;;;;;;;12.40;4.72;;;25.10;77.60;;;;;;5032210;28;20343;-74
2022/09/06 06:04:04;;;;;;;11.48;4.40;;;25.20;77.50;;;;;;5034439;28;20018;-71
2022/09/06 06:06:32;;;;;;;10.88;4.30;;;25.30;76.90;;;;;;5032695;28;20125;-76
2022/09/06 06:08:59;;;;;;;14.90;4.82;;;25.50;76.30;;;;;;5032052;28;20495;-70
2022/09/06 06:11:28;;;;;;;11.07;5.28;;;25.70;76.00;;;;;;5030968;28;20105;-75
2022/09/06 06:13:54;;;;;;;9.10;4.80;;;25.70;75.50;;;;;;5032134;28;20070;-66
2022/09/06 06:16:22;;;;;;;12.75;5.10;;;25.80;75.00;;;;;;5016397;28;20033;-67
2022/09/06 06:18:48;;;;;;;11.38;4.32;;;25.90;74.80;;;;;;5034422;28;20022;-74
2022/09/06 06:21:15;;;;;;;15.32;5.43;;;26.10;74.40;;;;;;5035898;28;20049;-79
2022/09/06 06:23:43;;;;;;;13.60;5.68;;;26.20;73.40;;;;;;5035616;28;20025;-80
2022/09/06 06:26:12;;;;;;;12.77;4.30;;;26.40;73.20;;;;;;5034333;28;20080;-69
2022/09/06 06:28:38;;;;;;;8.68;4.65;;;26.50;71.40;;;;;;5034680;28;20061;-66
2022/09/06 06:31:06;;;;;;;12.32;4.60;;;26.70;72.00;;;;;;5035395;28;20178;-67
2022/09/06 06:33:32;;;;;;;9.10;4.20;;;26.80;71.60;;;;;;5017701;28;20493;-68
2022/09/06 06:36:20;;;;;;;11.20;3.97;;;26.90;70.70;;;;;;5035370;28;20060;-69
2022/09/06 06:38:47;;;;;;;14.35;4.50;;;26.90;70.10;;;;;;5035190;28;20396;-66
2022/09/06 06:41:16;;;;;;;14.52;4.22;;;27.10;70.00;;;;;;5035024;28;20485;-65
2022/09/06 06:43:42;;;;;;;9.10;4.40;;;27.20;69.20;;;;;;5035127;28;20095;-69
2022/09/06 06:46:16;;;;;;;9.32;4.57;;;27.30;68.50;;;;;;5035012;28;20058;-74
2022/09/06 06:48:44;;;;;;;11.45;4.47;;;27.40;68.00;;;;;;5035069;28;20108;-77
2022/09/06 06:51:12;;;;;;;11.90;4.63;;;27.40;67.60;;;;;;5033655;28;20044;-74
2022/09/06 06:53:38;;;;;;;14.75;4.45;;;27.50;67.40;;;;;;5035112;28;20463;-72
2022/09/06 06:56:25;;;;;;;11.32;3.90;;;27.60;67.30;;;;;;5035116;28;20126;-72
2022/09/06 06:58:53;;;;;;;13.80;4.38;;;27.60;66.90;;;;;;5034856;28;20386;-69
2022/09/06 07:01:20;;;;;;;10.57;4.13;;;27.70;66.50;;;;;;5034720;28;20038;-70
2022/09/06 07:03:46;;;;;;;11.75;3.88;;;27.70;66.20;;;;;;5034828;28;20033;-77
2022/09/06 07:06:13;;;;;;;12.73;3.97;;;27.70;66.00;;;;;;5034688;28;20055;-66
2022/09/06 07:08:39;;;;;;;12.45;4.55;;;27.80;65.90;;;;;;5034630;28;20022;-67
2022/09/06 07:11:07;;;;;;;12.60;4.25;;;27.90;65.70;;;;;;5036485;28;20382;-68
2022/09/06 07:13:33;;;;;;;11.20;3.80;;;28.00;65.70;;;;;;5035647;28;20032;-71
2022/09/06 07:16:20;;;;;;;13.88;4.28;;;28.20;65.40;;;;;;5034621;28;20108;-73
2022/09/06 07:18:51;;;;;;;12.82;4.05;;;28.30;65.30;;;;;;5034553;28;20025;-76
2022/09/06 07:21:25;;;;;;;22.73;5.05;;;28.30;64.90;;;;;;5033000;28;20037;-70
2022/09/06 07:23:53;;;;;;;16.98;4.55;;;28.40;64.60;;;;;;5034842;28;20053;-73
2022/09/06 07:26:26;;;;;;;12.70;4.38;;;28.40;64.50;;;;;;5034232;28;20100;-75
2022/09/06 07:28:57;;;;;;;19.27;4.40;;;28.40;64.10;;;;;;5034507;28;20113;-72
2022/09/06 07:31:24;;;;;;;12.32;3.83;;;28.50;63.70;;;;;;5034376;28;20048;-74
2022/09/06 07:33:50;;;;;;;9.75;3.72;;;28.50;63.10;;;;;;5032792;28;20056;-78
2022/09/06 07:36:16;;;;;;;9.38;3.90;;;28.50;62.90;;;;;;5034511;28;20026;-81
2022/09/06 07:38:42;;;;;;;11.07;4.18;;;28.50;62.80;;;;;;5034834;28;20366;-79
2022/09/06 07:41:09;;;;;;;12.90;3.42;;;28.60;62.50;;;;;;5034935;28;20455;-78
2022/09/06 07:43:35;;;;;;;8.38;3.30;;;28.60;61.90;;;;;;5034548;28;20367;-78
2022/09/06 07:46:03;;;;;;;7.68;3.08;;;28.60;61.90;;;;;;5034549;28;20032;-73
2022/09/06 07:48:30;;;;;;;7.45;2.85;;;28.70;61.40;;;;;;5034211;28;20029;-75
2022/09/06 07:51:17;;;;;;;11.82;3.78;;;28.70;61.20;;;;;;5033699;28;20034;-77
2022/09/06 07:53:49;;;;;;;14.13;4.78;;;28.80;60.90;;;;;;5033871;28;20038;-73
2022/09/06 07:56:15;;;;;;;21.85;4.63;;;28.80;60.50;;;;;;5033634;28;20049;-68
2022/09/06 07:58:41;;;;;;;10.88;4.13;;;28.90;61.00;;;;;;5033498;28;20025;-72
2022/09/06 08:01:23;;;;;;;9.63;4.00;;;28.80;60.60;;;;;;5033565;28;20030;-70
2022/09/06 08:03:49;;;;;;;9.10;3.80;;;28.90;60.40;;;;;;5033819;28;20083;-76
2022/09/06 08:06:15;;;;;;;12.52;3.67;;;28.90;60.80;;;;;;5034815;28;20045;-74
2022/09/06 08:08:41;;;;;;;14.82;4.55;;;29.00;60.40;;;;;;5034320;28;20030;-73
2022/09/06 08:11:06;;;;;;;12.88;3.90;;;28.90;60.40;;;;;;5033706;28;20056;-73
2022/09/06 08:13:36;;;;;;;17.98;4.38;;;28.90;60.60;;;;;;5033374;28;20459;-71
2022/09/06 08:16:05;;;;;;;14.82;3.70;;;28.90;60.40;;;;;;5033656;28;20032;-67
2022/09/06 08:18:30;;;;;;;11.95;3.92;;;28.90;60.50;;;;;;5033522;28;20437;-72
2022/09/06 08:21:05;;;;;;;7.53;3.33;;;28.90;60.20;;;;;;5033003;28;20506;-71
2022/09/06 08:23:30;;;;;;;10.27;3.72;;;28.80;60.00;;;;;;5033376;28;20021;-77
2022/09/06 08:25:57;;;;;;;9.32;3.22;;;28.80;60.20;;;;;;5033113;28;20108;-70
2022/09/06 08:28:23;;;;;;;10.02;3.47;;;28.80;60.10;;;;;;5033133;28;20320;-69
2022/09/06 08:30:48;;;;;;;15.27;3.80;;;28.80;60.90;;;;;;5033258;28;20104;-69
2022/09/06 08:33:14;;;;;;;17.88;3.65;;;28.80;60.10;;;;;;5033132;28;20488;-70
2022/09/06 08:36:07;;;;;;;36.25;5.50;;;28.80;60.10;;;;;;5031726;28;20382;-72
2022/09/06 08:38:34;;;;;;;17.50;4.63;;;28.90;60.00;;;;;;5032885;28;20382;-70
2022/09/06 08:41:24;;;;;;;18.52;3.88;;;28.90;60.10;;;;;;5031850;28;20457;-67
2022/09/06 08:44:05;;;;;;;22.50;4.88;;;29.00;60.00;;;;;;5032790;28;20025;-74
2022/09/06 08:46:42;;;;;;;40.25;6.43;;;29.00;59.70;;;;;;5033215;28;20013;-70
2022/09/06 08:49:09;;;;;;;21.02;4.07;;;29.10;59.50;;;;;;5033275;28;20383;-72
2022/09/06 08:51:48;;;;;;;17.75;4.65;;;29.20;59.50;;;;;;5032971;28;20068;-69
2022/09/06 08:54:55;;;;;;;7.88;3.22;;;29.20;59.20;;;;;;5032928;28;20034;-76
2022/09/06 08:57:40;;;;;;;13.43;3.70;;;29.30;58.90;;;;;;5019262;28;20025;-79
2022/09/06 09:00:12;;;;;;;11.45;3.70;;;29.30;59.20;;;;;;5032976;28;20479;-71
2022/09/06 09:02:50;;;;;;;9.00;2.75;;;29.40;58.90;;;;;;5033115;28;20037;-72
2022/09/06 09:05:30;;;;;;;8.43;2.55;;;29.40;57.40;;;;;;5031993;28;20117;-75
2022/09/06 09:08:08;;;;;;;9.73;2.63;;;29.40;56.90;;;;;;5033210;28;20056;-79
2022/09/06 09:10:49;;;;;;;11.60;3.17;;;29.40;56.20;;;;;;5034337;28;20119;-79
2022/09/06 09:14:10;;;;;;;16.77;4.25;;;29.50;56.50;;;;;;5033777;28;20024;-70
2022/09/06 09:16:35;;;;;;;11.20;2.80;;;29.60;56.40;;;;;;5014808;28;20107;-72
2022/09/06 09:19:05;;;;;;;19.73;3.78;;;29.60;56.00;;;;;;5033001;28;20029;-73
2022/09/06 09:21:35;;;;;;;8.77;3.28;;;29.70;54.90;;;;;;5031825;28;20030;-67
2022/09/06 09:24:05;;;;;;;9.73;2.67;;;29.70;56.00;;;;;;5033133;28;20068;-69
2022/09/06 09:26:48;;;;;;;11.32;2.47;;;29.70;55.60;;;;;;5034334;28;20049;-70
2022/09/06 09:29:14;;;;;;;9.95;3.00;;;29.80;54.20;;;;;;5035123;28;20037;-71
2022/09/06 09:31:54;;;;;;;13.85;4.00;;;29.80;55.90;;;;;;5032725;28;20025;-76
2022/09/06 09:34:36;;;;;;;26.40;5.03;;;30.00;55.70;;;;;;5032413;28;20026;-79
2022/09/06 09:37:31;;;;;;;9.93;3.10;;;30.00;54.00;;;;;;5032728;28;20039;-78
2022/09/06 09:39:57;;;;;;;13.73;3.00;;;30.10;54.80;;;;;;5019630;28;20375;-70
2022/09/06 09:42:28;;;;;;;15.80;3.17;;;30.10;55.10;;;;;;5032881;28;20418;-74
2022/09/06 09:44:55;;;;;;;11.63;2.80;;;30.10;52.80;;;;;;5032331;28;20052;-75
2022/09/06 09:47:23;;;;;;;10.80;2.92;;;30.20;54.80;;;;;;5032744;28;20053;-76
2022/09/06 09:49:49;;;;;;;8.32;3.15;;;30.20;54.20;;;;;;5032764;28;20053;-74
2022/09/06 09:52:25;;;;;;;13.07;3.22;;;30.40;54.60;;;;;;5036155;28;20044;-73
2022/09/06 09:54:54;;;;;;;10.93;2.85;;;30.40;54.30;;;;;;5036790;28;20029;-71
2022/09/06 09:57:22;;;;;;;8.52;2.80;;;30.50;53.80;;;;;;5036565;28;20143;-75
2022/09/06 10:00:12;;;;;;;8.15;3.08;;;30.50;53.80;;;;;;5036435;28;20060;-74
2022/09/06 10:02:40;;;;;;;37.05;29.08;;;30.60;52.00;;;;;;5036189;28;20180;-72
2022/09/06 10:05:11;;;;;;;13.73;5.45;;;30.70;53.80;;;;;;5036648;28;20026;-72
2022/09/06 10:07:45;;;;;;;12.75;3.75;;;30.70;51.80;;;;;;5036415;28;20402;-73
2022/09/06 10:10:13;;;;;;;;;;;30.80;53.20;;;;;;5040895;28;20111;-77
2022/09/06 10:12:41;;;;;;;7.20;3.00;;;30.90;53.30;;;;;;5037153;28;19913;-77
2022/09/06 10:15:30;;;;;;;8.20;2.78;;;31.00;52.90;;;;;;5019352;28;20026;-78
2022/09/06 10:17:56;;;;;;;6.20;2.13;;;31.00;50.40;;;;;;5037481;28;20026;-72
2022/09/06 10:20:30;;;;;;;10.85;3.20;;;31.10;50.90;;;;;;5041254;28;20025;-69
2022/09/06 10:23:17;;;;;;;6.40;3.00;;;31.10;50.90;;;;;;5041548;28;20107;-74
2022/09/06 10:26:10;;;;;;;6.50;2.47;;;31.20;49.20;;;;;;5041403;28;20536;-70
2022/09/06 10:28:42;;;;;;;11.52;7.80;;;31.20;48.00;;;;;;5036938;28;20336;-78
2022/09/06 10:31:29;;;;;;;7.95;4.03;;;31.30;49.10;;;;;;5035797;28;20028;-74
2022/09/06 10:34:13;;;;;;;5.25;2.50;;;31.40;47.10;;;;;;5036437;28;20075;-73
2022/09/06 10:36:48;;;;;;;;;;;31.50;46.90;;;;;;5036464;28;20025;-73
2022/09/06 10:39:30;;;;;;;8.55;2.22;;;31.50;46.90;;;;;;5035693;28;19909;-73
2022/09/06 10:41:58;;;;;;;6.93;2.33;;;31.60;48.00;;;;;;5035594;28;20509;-77
2022/09/06 10:44:59;;;;;;;5.60;2.17;;;31.70;47.50;;;;;;5035506;28;20386;-76
2022/09/06 10:47:38;;;;;;;4.97;2.20;;;31.80;46.50;;;;;;4974236;28;20033;-76
2022/09/06 10:50:05;;;;;;;5.18;2.25;;;31.90;45.70;;;;;;5028408;28;20068;-75
2022/09/06 10:52:42;;;;;;;9.68;2.60;;;32.10;46.10;;;;;;5035239;28;20060;-71
2022/09/06 10:55:13;;;;;;;7.13;2.25;;;32.20;45.70;;;;;;5034935;28;20108;-73
2022/09/06 10:57:46;;;;;;;6.20;2.53;;;32.20;45.40;;;;;;5033997;28;20029;-67
2022/09/06 11:00:12;;;;;;;;;;;32.30;45.10;;;;;;5035526;28;20017;-71
2022/09/06 11:03:02;;;;;;;8.73;2.30;;;32.30;43.90;;;;;;5035048;28;19920;-75
2022/09/06 11:05:33;;;;;;;6.97;2.00;;;32.40;44.50;;;;;;5035227;28;20022;-74
2022/09/06 11:08:01;;;;;;;5.90;2.08;;;32.50;45.20;;;;;;5034880;28;20045;-73
2022/09/06 11:10:36;;;;;;;5.03;1.90;;;32.50;44.90;;;;;;5034585;28;20026;-73
2022/09/06 11:13:15;;;;;;;9.45;2.72;;;32.60;44.20;;;;;;5016576;28;20079;-68
2022/09/06 11:16:05;;;;;;;8.25;3.10;;;32.70;44.10;;;;;;5034563;28;20109;-70
2022/09/06 11:18:52;;;;;;;5.32;2.40;;;32.70;43.30;;;;;;5034419;28;20025;-70
2022/09/06 11:21:44;;;;;;;5.93;2.67;;;32.70;43.10;;;;;;5034304;28;20037;-68
2022/09/06 11:24:19;;;;;;;6.40;2.40;;;32.80;44.00;;;;;;5033828;28;20037;-70
2022/09/06 11:27:03;;;;;;;8.05;2.40;;;32.90;43.80;;;;;;5034306;28;20529;-70
2022/09/06 11:29:31;;;;;;;8.70;2.40;;;33.00;44.20;;;;;;5034382;28;20025;-69
2022/09/06 11:32:02;;;;;;;8.50;2.63;;;33.00;44.70;;;;;;5034387;28;20033;-70
2022/09/06 11:34:32;;;;;;;8.43;3.15;;;33.10;44.10;;;;;;5016344;28;20109;-74
2022/09/06 11:37:07;;;;;;;8.98;2.83;;;33.20;43.90;;;;;;5034340;28;20367;-74
2022/09/06 11:39:36;;;;;;;9.55;2.67;;;33.40;43.60;;;;;;5034402;28;20025;-71
2022/09/06 11:42:29;;;;;;;8.80;2.30;;;33.40;43.20;;;;;;5033799;28;20022;-68
2022/09/06 11:44:55;;;;;;;9.18;2.40;;;33.50;43.20;;;;;;5034499;28;20493;-74
2022/09/06 11:47:41;;;;;;;11.13;2.30;;;33.50;43.10;;;;;;5035123;28;20033;-68
2022/09/06 11:50:19;;;;;;;7.82;2.88;;;33.50;42.90;;;;;;5033736;28;20036;-77
2022/09/06 11:53:01;;;;;;;7.50;2.85;;;33.50;43.80;;;;;;5034526;28;20167;-79
2022/09/06 11:55:48;;;;;;;14.30;3.40;;;33.60;44.30;;;;;;5034193;28;20105;-77
2022/09/06 11:58:27;;;;;;;7.57;3.08;;;33.70;46.20;;;;;;5033665;28;20036;-76
2022/09/06 12:01:11;;;;;;;9.40;2.70;;;33.70;46.90;;;;;;5033872;28;20108;-79
2022/09/06 12:03:46;;;;;;;11.27;3.10;;;33.80;47.40;;;;;;5033508;28;20022;-69
2022/09/06 12:06:20;;;;;;;9.43;2.90;;;33.80;47.80;;;;;;5033005;28;20501;-67
2022/09/06 12:08:51;;;;;;;13.20;3.40;;;33.90;48.20;;;;;;5033480;28;20033;-70
2022/09/06 12:11:36;;;;;;;9.50;3.08;;;33.90;47.10;;;;;;5033370;28;20018;-72
2022/09/06 12:14:18;;;;;;;8.00;2.70;;;34.00;48.40;;;;;;5032857;28;20025;-66
2022/09/06 12:17:05;;;;;;;11.95;7.35;;;33.90;47.40;;;;;;5033382;28;20030;-69
2022/09/06 12:19:54;;;;;;;8.80;3.38;;;34.00;47.90;;;;;;5033778;28;20041;-66
2022/09/06 12:22:25;;;;;;;8.40;4.88;;;34.10;48.30;;;;;;5033110;28;20085;-72
2022/09/06 12:24:58;;;;;;;10.57;3.30;;;34.20;49.30;;;;;;5033398;28;20040;-70
2022/09/06 12:27:43;;;;;;;9.32;3.58;;;34.20;49.60;;;;;;5015273;28;20021;-73
2022/09/06 12:30:12;;;;;;;8.15;3.10;;;34.20;48.90;;;;;;5033236;28;20030;-73
2022/09/06 12:32:47;;;;;;;8.63;3.30;;;34.10;50.00;;;;;;5032039;28;20045;-73
2022/09/06 12:35:20;;;;;;;7.45;3.30;;;34.10;50.30;;;;;;5031926;28;20539;-80
2022/09/06 12:37:53;;;;;;;7.68;2.95;;;34.10;50.40;;;;;;5033431;28;20064;-75
2022/09/06 12:40:21;;;;;;;6.93;2.73;;;34.00;50.90;;;;;;5032050;28;20053;-78
2022/09/06 12:42:50;;;;;;;8.15;2.90;;;34.00;49.30;;;;;;5033267;28;20041;-80
2022/09/06 12:45:21;;;;;;;9.07;3.10;;;34.00;49.30;;;;;;5033453;28;20029;-71
2022/09/06 12:47:47;;;;;;;7.97;2.50;;;34.00;49.50;;;;;;5032945;28;20057;-73
2022/09/06 12:50:16;;;;;;;8.15;3.13;;;33.90;50.10;;;;;;5032128;28;20033;-74
2022/09/06 12:52:49;;;;;;;6.53;3.00;;;33.80;49.70;;;;;;5033833;28;20092;-72
2022/09/06 12:55:23;;;;;;;;;;;33.70;49.80;;;;;;5033556;28;20379;-73
2022/09/06 12:57:50;;;;;;;;;;;33.60;48.40;;;;;;5033291;28;19928;-74
2022/09/06 13:00:17;;;;;;;6.45;2.55;;;33.50;49.50;;;;;;5033137;28;19912;-79
2022/09/06 13:03:27;;;;;;;5.63;2.33;;;33.50;49.70;;;;;;5031885;28;20080;-78
2022/09/06 13:05:55;;;;;;;8.25;2.45;;;33.50;48.00;;;;;;4996693;28;20037;-77